sensor_id;sensor_type;location;lat;lon;timestamp;P1;durP1;ratioP1;P2;durP2;ratioP2
21430;SDS011;10876;49.038;10.608;2024-02-14T00:00:50;3.42;;;1.27;;
21430;SDS011;10876;49.038;10.608;2024-02-14T00:03:17;1.75;;;1.38;;
21430;SDS011;10876;49.038;10.608;2024-02-14T00:05:45;2.78;;;1.48;;
21430;SDS011;10876;49.038;10.608;2024-02-14T00:08:12;1.77;;;1.55;;
21430;SDS011;10876;49.038;10.608;2024-02-14T00:10:40;1.33;;;1.25;;
21430;SDS011;10876;49.038;10.608;2024-02-14T00:13:08;1.30;;;1.20;;
21430;SDS011;10876;49.038;10.608;2024-02-14T00:15:37;1.00;;;1.00;;
21430;SDS011;10876;49.038;10.608;2024-02-14T00:18:04;1.10;;;1.00;;
21430;SDS011;10876;49.038;10.608;2024-02-14T00:20:36;1.17;;;1.17;;
21430;SDS011;10876;49.038;10.608;2024-02-14T00:25:41;1.05;;;1.05;;
21430;SDS011;10876;49.038;10.608;2024-02-14T00:28:08;1.48;;;1.00;;
21430;SDS011;10876;49.038;10.608;2024-02-14T00:30:35;1.75;;;1.27;;
21430;SDS011;10876;49.038;10.608;2024-02-14T00:33:03;0.90;;;0.90;;
21430;SDS011;10876;49.038;10.608;2024-02-14T00:35:29;0.82;;;0.82;;
21430;SDS011;10876;49.038;10.608;2024-02-14T00:37:56;1.65;;;1.23;;
21430;SDS011;10876;49.038;10.608;2024-02-14T00:40:22;1.33;;;1.23;;
21430;SDS011;10876;49.038;10.608;2024-02-14T00:42:49;1.27;;;1.10;;
21430;SDS011;10876;49.038;10.608;2024-02-14T00:45:16;2.00;;;1.40;;
21430;SDS011;10876;49.038;10.608;2024-02-14T00:47:42;2.10;;;1.42;;
21430;SDS011;10876;49.038;10.608;2024-02-14T00:50:11;2.65;;;1.70;;
21430;SDS011;10876;49.038;10.608;2024-02-14T00:52:39;1.52;;;1.15;;
21430;SDS011;10876;49.038;10.608;2024-02-14T00:55:07;1.48;;;1.15;;
21430;SDS011;10876;49.038;10.608;2024-02-14T00:57:34;2.50;;;1.23;;
21430;SDS011;10876;49.038;10.608;2024-02-14T01:00:01;2.20;;;1.23;;
21430;SDS011;10876;49.038;10.608;2024-02-14T01:02:28;1.25;;;0.98;;
21430;SDS011;10876;49.038;10.608;2024-02-14T01:04:55;4.03;;;1.25;;
21430;SDS011;10876;49.038;10.608;2024-02-14T01:07:23;2.63;;;1.13;;
21430;SDS011;10876;49.038;10.608;2024-02-14T01:09:50;1.88;;;1.30;;
21430;SDS011;10876;49.038;10.608;2024-02-14T01:12:16;1.00;;;1.00;;
21430;SDS011;10876;49.038;10.608;2024-02-14T01:14:43;1.40;;;1.10;;
21430;SDS011;10876;49.038;10.608;2024-02-14T01:17:10;16.50;;;1.77;;
21430;SDS011;10876;49.038;10.608;2024-02-14T01:19:36;1.08;;;0.90;;
21430;SDS011;10876;49.038;10.608;2024-02-14T01:22:15;1.75;;;0.98;;
21430;SDS011;10876;49.038;10.608;2024-02-14T01:24:44;1.95;;;1.10;;
21430;SDS011;10876;49.038;10.608;2024-02-14T01:27:11;1.67;;;1.00;;
21430;SDS011;10876;49.038;10.608;2024-02-14T01:29:41;0.88;;;0.88;;
21430;SDS011;10876;49.038;10.608;2024-02-14T01:32:09;1.45;;;1.35;;
21430;SDS011;10876;49.038;10.608;2024-02-14T01:34:35;4.60;;;1.58;;
21430;SDS011;10876;49.038;10.608;2024-02-14T01:37:02;1.88;;;1.77;;
21430;SDS011;10876;49.038;10.608;2024-02-14T01:39:29;1.35;;;1.33;;
21430;SDS011;10876;49.038;10.608;2024-02-14T01:41:57;1.00;;;1.00;;
21430;SDS011;10876;49.038;10.608;2024-02-14T01:44:24;1.25;;;1.17;;
21430;SDS011;10876;49.038;10.608;2024-02-14T01:46:50;0.93;;;0.90;;
21430;SDS011;10876;49.038;10.608;2024-02-14T01:49:18;1.48;;;1.38;;
21430;SDS011;10876;49.038;10.608;2024-02-14T01:51:45;1.65;;;1.55;;
21430;SDS011;10876;49.038;10.608;2024-02-14T01:54:12;2.08;;;1.73;;
21430;SDS011;10876;49.038;10.608;2024-02-14T01:56:39;1.05;;;1.05;;
21430;SDS011;10876;49.038;10.608;2024-02-14T01:59:07;1.35;;;1.20;;
21430;SDS011;10876;49.038;10.608;2024-02-14T02:01:34;1.13;;;1.10;;
21430;SDS011;10876;49.038;10.608;2024-02-14T02:04:00;1.83;;;1.42;;
21430;SDS011;10876;49.038;10.608;2024-02-14T02:06:27;1.90;;;1.77;;
21430;SDS011;10876;49.038;10.608;2024-02-14T02:08:55;4.10;;;1.45;;
21430;SDS011;10876;49.038;10.608;2024-02-14T02:11:22;2.92;;;2.28;;
21430;SDS011;10876;49.038;10.608;2024-02-14T02:13:48;2.38;;;2.17;;
21430;SDS011;10876;49.038;10.608;2024-02-14T02:16:16;3.83;;;1.80;;
21430;SDS011;10876;49.038;10.608;2024-02-14T02:18:44;1.55;;;1.45;;
21430;SDS011;10876;49.038;10.608;2024-02-14T02:21:10;1.35;;;1.25;;
21430;SDS011;10876;49.038;10.608;2024-02-14T02:23:39;2.97;;;1.67;;
21430;SDS011;10876;49.038;10.608;2024-02-14T02:26:06;2.15;;;1.63;;
21430;SDS011;10876;49.038;10.608;2024-02-14T02:28:33;2.22;;;1.55;;
21430;SDS011;10876;49.038;10.608;2024-02-14T02:31:00;2.67;;;1.08;;
21430;SDS011;10876;49.038;10.608;2024-02-14T02:33:26;0.93;;;0.93;;
21430;SDS011;10876;49.038;10.608;2024-02-14T02:35:53;1.30;;;1.20;;
21430;SDS011;10876;49.038;10.608;2024-02-14T02:38:20;1.55;;;1.30;;
21430;SDS011;10876;49.038;10.608;2024-02-14T02:40:48;1.52;;;0.90;;
21430;SDS011;10876;49.038;10.608;2024-02-14T02:43:15;3.33;;;2.80;;
21430;SDS011;10876;49.038;10.608;2024-02-14T02:45:42;1.65;;;1.48;;
21430;SDS011;10876;49.038;10.608;2024-02-14T02:48:09;1.77;;;1.60;;
21430;SDS011;10876;49.038;10.608;2024-02-14T02:50:36;3.83;;;1.45;;
21430;SDS011;10876;49.038;10.608;2024-02-14T02:53:02;2.25;;;2.05;;
21430;SDS011;10876;49.038;10.608;2024-02-14T02:55:29;4.35;;;2.13;;
21430;SDS011;10876;49.038;10.608;2024-02-14T02:57:58;2.20;;;1.90;;
21430;SDS011;10876;49.038;10.608;2024-02-14T03:00:26;2.08;;;1.50;;
21430;SDS011;10876;49.038;10.608;2024-02-14T03:02:52;1.40;;;1.30;;
21430;SDS011;10876;49.038;10.608;2024-02-14T03:05:19;2.90;;;1.95;;
21430;SDS011;10876;49.038;10.608;2024-02-14T03:07:48;2.42;;;2.22;;
21430;SDS011;10876;49.038;10.608;2024-02-14T03:10:16;1.77;;;1.65;;
21430;SDS011;10876;49.038;10.608;2024-02-14T03:12:44;2.13;;;1.98;;
21430;SDS011;10876;49.038;10.608;2024-02-14T03:15:13;7.60;;;2.22;;
21430;SDS011;10876;49.038;10.608;2024-02-14T03:17:39;1.92;;;1.83;;
21430;SDS011;10876;49.038;10.608;2024-02-14T03:20:07;2.60;;;2.33;;
21430;SDS011;10876;49.038;10.608;2024-02-14T03:22:37;1.50;;;1.40;;
21430;SDS011;10876;49.038;10.608;2024-02-14T03:25:08;2.33;;;1.80;;
21430;SDS011;10876;49.038;10.608;2024-02-14T03:27:34;1.52;;;1.42;;
21430;SDS011;10876;49.038;10.608;2024-02-14T03:30:02;7.15;;;1.98;;
21430;SDS011;10876;49.038;10.608;2024-02-14T03:32:30;1.40;;;1.33;;
21430;SDS011;10876;49.038;10.608;2024-02-14T03:34:56;1.92;;;1.60;;
21430;SDS011;10876;49.038;10.608;2024-02-14T03:37:23;2.00;;;1.80;;
21430;SDS011;10876;49.038;10.608;2024-02-14T03:39:50;2.15;;;1.83;;
21430;SDS011;10876;49.038;10.608;2024-02-14T03:42:17;1.52;;;1.42;;
21430;SDS011;10876;49.038;10.608;2024-02-14T03:44:44;3.75;;;2.13;;
21430;SDS011;10876;49.038;10.608;2024-02-14T03:47:11;3.00;;;2.15;;
21430;SDS011;10876;49.038;10.608;2024-02-14T03:49:40;1.83;;;1.73;;
21430;SDS011;10876;49.038;10.608;2024-02-14T03:52:07;3.40;;;2.13;;
21430;SDS011;10876;49.038;10.608;2024-02-14T03:54:35;2.53;;;1.88;;
21430;SDS011;10876;49.038;10.608;2024-02-14T03:57:01;2.38;;;2.17;;
21430;SDS011;10876;49.038;10.608;2024-02-14T03:59:29;1.60;;;1.50;;
21430;SDS011;10876;49.038;10.608;2024-02-14T04:01:56;5.60;;;2.20;;
21430;SDS011;10876;49.038;10.608;2024-02-14T04:04:23;3.78;;;2.80;;
21430;SDS011;10876;49.038;10.608;2024-02-14T04:06:51;2.45;;;1.70;;
21430;SDS011;10876;49.038;10.608;2024-02-14T04:09:18;2.80;;;1.75;;
21430;SDS011;10876;49.038;10.608;2024-02-14T04:11:45;4.07;;;1.80;;
21430;SDS011;10876;49.038;10.608;2024-02-14T04:14:13;2.97;;;2.28;;
21430;SDS011;10876;49.038;10.608;2024-02-14T04:16:40;2.30;;;2.10;;
21430;SDS011;10876;49.038;10.608;2024-02-14T04:19:06;1.42;;;1.33;;
21430;SDS011;10876;49.038;10.608;2024-02-14T04:21:34;7.38;;;2.20;;
21430;SDS011;10876;49.038;10.608;2024-02-14T04:24:02;5.57;;;2.22;;
21430;SDS011;10876;49.038;10.608;2024-02-14T04:26:28;2.03;;;1.85;;
21430;SDS011;10876;49.038;10.608;2024-02-14T04:28:55;1.85;;;1.52;;
21430;SDS011;10876;49.038;10.608;2024-02-14T04:31:22;1.85;;;1.60;;
21430;SDS011;10876;49.038;10.608;2024-02-14T04:33:49;3.50;;;2.05;;
21430;SDS011;10876;49.038;10.608;2024-02-14T04:36:17;2.25;;;2.05;;
21430;SDS011;10876;49.038;10.608;2024-02-14T04:38:44;4.10;;;2.17;;
21430;SDS011;10876;49.038;10.608;2024-02-14T04:41:12;3.65;;;2.55;;
21430;SDS011;10876;49.038;10.608;2024-02-14T04:43:39;4.18;;;2.75;;
21430;SDS011;10876;49.038;10.608;2024-02-14T04:46:06;2.45;;;2.25;;
21430;SDS011;10876;49.038;10.608;2024-02-14T04:48:33;3.45;;;1.80;;
21430;SDS011;10876;49.038;10.608;2024-02-14T04:51:00;3.20;;;1.75;;
21430;SDS011;10876;49.038;10.608;2024-02-14T04:53:27;1.67;;;1.58;;
21430;SDS011;10876;49.038;10.608;2024-02-14T04:55:54;2.33;;;1.85;;
21430;SDS011;10876;49.038;10.608;2024-02-14T04:58:22;3.47;;;2.00;;
21430;SDS011;10876;49.038;10.608;2024-02-14T05:00:49;1.92;;;1.77;;
21430;SDS011;10876;49.038;10.608;2024-02-14T05:03:15;3.47;;;1.83;;
21430;SDS011;10876;49.038;10.608;2024-02-14T05:05:42;5.28;;;2.35;;
21430;SDS011;10876;49.038;10.608;2024-02-14T05:08:09;4.28;;;2.70;;
21430;SDS011;10876;49.038;10.608;2024-02-14T05:10:36;3.92;;;3.58;;
21430;SDS011;10876;49.038;10.608;2024-02-14T05:13:02;3.45;;;2.45;;
21430;SDS011;10876;49.038;10.608;2024-02-14T05:15:31;3.65;;;2.35;;
21430;SDS011;10876;49.038;10.608;2024-02-14T05:18:00;2.28;;;2.13;;
21430;SDS011;10876;49.038;10.608;2024-02-14T05:20:26;2.75;;;2.42;;
21430;SDS011;10876;49.038;10.608;2024-02-14T05:22:53;3.55;;;2.47;;
21430;SDS011;10876;49.038;10.608;2024-02-14T05:25:20;2.53;;;2.33;;
21430;SDS011;10876;49.038;10.608;2024-02-14T05:27:47;4.57;;;3.10;;
21430;SDS011;10876;49.038;10.608;2024-02-14T05:30:16;9.13;;;2.00;;
21430;SDS011;10876;49.038;10.608;2024-02-14T05:32:45;3.53;;;2.00;;
21430;SDS011;10876;49.038;10.608;2024-02-14T05:35:11;2.38;;;2.13;;
21430;SDS011;10876;49.038;10.608;2024-02-14T05:37:38;2.88;;;1.70;;
21430;SDS011;10876;49.038;10.608;2024-02-14T05:40:05;4.88;;;2.55;;
21430;SDS011;10876;49.038;10.608;2024-02-14T05:42:32;5.28;;;2.83;;
21430;SDS011;10876;49.038;10.608;2024-02-14T05:45:00;4.50;;;2.95;;
21430;SDS011;10876;49.038;10.608;2024-02-14T05:47:27;3.78;;;3.17;;
21430;SDS011;10876;49.038;10.608;2024-02-14T05:49:56;3.45;;;2.78;;
21430;SDS011;10876;49.038;10.608;2024-02-14T05:52:26;7.25;;;2.50;;
21430;SDS011;10876;49.038;10.608;2024-02-14T05:54:52;4.55;;;2.70;;
21430;SDS011;10876;49.038;10.608;2024-02-14T05:57:19;3.33;;;2.33;;
21430;SDS011;10876;49.038;10.608;2024-02-14T05:59:46;3.15;;;2.70;;
21430;SDS011;10876;49.038;10.608;2024-02-14T06:02:12;4.15;;;1.95;;
21430;SDS011;10876;49.038;10.608;2024-02-14T06:04:39;4.07;;;2.90;;
21430;SDS011;10876;49.038;10.608;2024-02-14T06:07:09;3.40;;;2.55;;
21430;SDS011;10876;49.038;10.608;2024-02-14T06:09:37;3.45;;;2.08;;
21430;SDS011;10876;49.038;10.608;2024-02-14T06:12:03;2.17;;;1.98;;
21430;SDS011;10876;49.038;10.608;2024-02-14T06:14:30;3.65;;;2.33;;
21430;SDS011;10876;49.038;10.608;2024-02-14T06:16:59;2.15;;;1.77;;
21430;SDS011;10876;49.038;10.608;2024-02-14T06:19:26;2.67;;;2.10;;
21430;SDS011;10876;49.038;10.608;2024-02-14T06:21:52;4.30;;;2.35;;
21430;SDS011;10876;49.038;10.608;2024-02-14T06:24:20;3.20;;;2.92;;
21430;SDS011;10876;49.038;10.608;2024-02-14T06:26:47;6.43;;;2.85;;
21430;SDS011;10876;49.038;10.608;2024-02-14T06:29:13;2.75;;;2.28;;
21430;SDS011;10876;49.038;10.608;2024-02-14T06:31:40;6.47;;;2.13;;
21430;SDS011;10876;49.038;10.608;2024-02-14T06:34:07;13.35;;;3.22;;
21430;SDS011;10876;49.038;10.608;2024-02-14T06:36:34;5.45;;;3.15;;
21430;SDS011;10876;49.038;10.608;2024-02-14T06:39:00;3.10;;;2.75;;
21430;SDS011;10876;49.038;10.608;2024-02-14T06:41:28;3.05;;;2.03;;
21430;SDS011;10876;49.038;10.608;2024-02-14T06:43:56;9.15;;;2.97;;
21430;SDS011;10876;49.038;10.608;2024-02-14T06:46:23;4.15;;;2.75;;
21430;SDS011;10876;49.038;10.608;2024-02-14T06:48:50;5.05;;;2.08;;
21430;SDS011;10876;49.038;10.608;2024-02-14T06:51:16;3.65;;;2.53;;
21430;SDS011;10876;49.038;10.608;2024-02-14T06:53:43;3.17;;;2.88;;
21430;SDS011;10876;49.038;10.608;2024-02-14T06:56:09;2.30;;;1.95;;
21430;SDS011;10876;49.038;10.608;2024-02-14T06:58:38;4.07;;;2.42;;
21430;SDS011;10876;49.038;10.608;2024-02-14T07:01:04;3.17;;;1.85;;
21430;SDS011;10876;49.038;10.608;2024-02-14T07:03:31;2.47;;;2.25;;
21430;SDS011;10876;49.038;10.608;2024-02-14T07:05:58;2.85;;;2.30;;
21430;SDS011;10876;49.038;10.608;2024-02-14T07:08:25;4.47;;;2.60;;
21430;SDS011;10876;49.038;10.608;2024-02-14T07:10:53;3.58;;;2.30;;
21430;SDS011;10876;49.038;10.608;2024-02-14T07:13:20;1.42;;;1.33;;
21430;SDS011;10876;49.038;10.608;2024-02-14T07:15:48;2.40;;;1.70;;
21430;SDS011;10876;49.038;10.608;2024-02-14T07:18:15;2.20;;;1.92;;
21430;SDS011;10876;49.038;10.608;2024-02-14T07:20:54;4.55;;;2.97;;
21430;SDS011;10876;49.038;10.608;2024-02-14T07:25:52;2.72;;;2.05;;
21430;SDS011;10876;49.038;10.608;2024-02-14T07:28:19;3.70;;;2.90;;
21430;SDS011;10876;49.038;10.608;2024-02-14T07:30:45;2.65;;;1.95;;
21430;SDS011;10876;49.038;10.608;2024-02-14T07:33:13;4.28;;;1.70;;
21430;SDS011;10876;49.038;10.608;2024-02-14T07:35:40;1.60;;;1.50;;
21430;SDS011;10876;49.038;10.608;2024-02-14T07:38:09;7.13;;;2.85;;
21430;SDS011;10876;49.038;10.608;2024-02-14T07:40:35;2.85;;;1.98;;
21430;SDS011;10876;49.038;10.608;2024-02-14T07:43:02;2.72;;;2.22;;
21430;SDS011;10876;49.038;10.608;2024-02-14T07:45:29;3.03;;;2.38;;
21430;SDS011;10876;49.038;10.608;2024-02-14T07:47:56;3.47;;;2.85;;
21430;SDS011;10876;49.038;10.608;2024-02-14T07:50:24;4.63;;;3.08;;
21430;SDS011;10876;49.038;10.608;2024-02-14T07:52:52;2.70;;;2.08;;
21430;SDS011;10876;49.038;10.608;2024-02-14T07:55:18;2.65;;;2.30;;
21430;SDS011;10876;49.038;10.608;2024-02-14T07:57:45;6.90;;;2.67;;
21430;SDS011;10876;49.038;10.608;2024-02-14T08:00:12;4.75;;;2.20;;
21430;SDS011;10876;49.038;10.608;2024-02-14T08:02:45;6.65;;;2.72;;
21430;SDS011;10876;49.038;10.608;2024-02-14T08:05:11;2.00;;;1.77;;
21430;SDS011;10876;49.038;10.608;2024-02-14T08:07:40;2.28;;;1.70;;
21430;SDS011;10876;49.038;10.608;2024-02-14T08:10:06;4.72;;;3.00;;
21430;SDS011;10876;49.038;10.608;2024-02-14T08:12:34;4.40;;;1.67;;
21430;SDS011;10876;49.038;10.608;2024-02-14T08:15:00;1.77;;;1.60;;
21430;SDS011;10876;49.038;10.608;2024-02-14T08:17:29;3.58;;;2.20;;
21430;SDS011;10876;49.038;10.608;2024-02-14T08:19:56;3.55;;;2.78;;
21430;SDS011;10876;49.038;10.608;2024-02-14T08:22:23;4.53;;;2.38;;
21430;SDS011;10876;49.038;10.608;2024-02-14T08:24:51;3.00;;;2.53;;
21430;SDS011;10876;49.038;10.608;2024-02-14T08:27:17;4.35;;;1.83;;
21430;SDS011;10876;49.038;10.608;2024-02-14T08:29:44;3.53;;;2.60;;
21430;SDS011;10876;49.038;10.608;2024-02-14T08:32:11;3.22;;;2.25;;
21430;SDS011;10876;49.038;10.608;2024-02-14T08:34:37;3.70;;;2.70;;
21430;SDS011;10876;49.038;10.608;2024-02-14T08:37:04;4.57;;;2.13;;
21430;SDS011;10876;49.038;10.608;2024-02-14T08:39:32;4.85;;;2.17;;
21430;SDS011;10876;49.038;10.608;2024-02-14T08:42:00;7.47;;;3.95;;
21430;SDS011;10876;49.038;10.608;2024-02-14T08:44:28;1.85;;;1.67;;
21430;SDS011;10876;49.038;10.608;2024-02-14T08:46:55;1.92;;;1.52;;
21430;SDS011;10876;49.038;10.608;2024-02-14T08:49:22;1.48;;;1.30;;
21430;SDS011;10876;49.038;10.608;2024-02-14T08:51:48;2.80;;;2.45;;
21430;SDS011;10876;49.038;10.608;2024-02-14T08:54:15;4.20;;;2.25;;
21430;SDS011;10876;49.038;10.608;2024-02-14T08:56:42;2.80;;;2.13;;
21430;SDS011;10876;49.038;10.608;2024-02-14T08:59:10;2.55;;;2.35;;
21430;SDS011;10876;49.038;10.608;2024-02-14T09:01:37;5.18;;;2.78;;
21430;SDS011;10876;49.038;10.608;2024-02-14T09:04:18;4.10;;;3.00;;
21430;SDS011;10876;49.038;10.608;2024-02-14T09:06:45;3.92;;;2.75;;
21430;SDS011;10876;49.038;10.608;2024-02-14T09:09:11;2.42;;;2.13;;
21430;SDS011;10876;49.038;10.608;2024-02-14T09:11:48;2.35;;;2.15;;
21430;SDS011;10876;49.038;10.608;2024-02-14T09:14:26;3.35;;;2.08;;
21430;SDS011;10876;49.038;10.608;2024-02-14T09:16:56;1.95;;;1.77;;
21430;SDS011;10876;49.038;10.608;2024-02-14T09:19:27;4.40;;;2.33;;
21430;SDS011;10876;49.038;10.608;2024-02-14T09:21:55;12.25;;;3.13;;
21430;SDS011;10876;49.038;10.608;2024-02-14T09:24:24;4.75;;;1.65;;
21430;SDS011;10876;49.038;10.608;2024-02-14T09:26:51;7.10;;;1.95;;
21430;SDS011;10876;49.038;10.608;2024-02-14T09:29:18;5.10;;;1.90;;
21430;SDS011;10876;49.038;10.608;2024-02-14T09:31:46;4.88;;;2.13;;
21430;SDS011;10876;49.038;10.608;2024-02-14T09:34:14;1.95;;;1.83;;
21430;SDS011;10876;49.038;10.608;2024-02-14T09:36:43;6.63;;;2.22;;
21430;SDS011;10876;49.038;10.608;2024-02-14T09:39:10;1.95;;;1.58;;
21430;SDS011;10876;49.038;10.608;2024-02-14T09:41:37;3.33;;;2.20;;
21430;SDS011;10876;49.038;10.608;2024-02-14T09:44:05;5.43;;;2.28;;
21430;SDS011;10876;49.038;10.608;2024-02-14T09:46:32;8.43;;;2.72;;
21430;SDS011;10876;49.038;10.608;2024-02-14T09:49:03;2.72;;;2.08;;
21430;SDS011;10876;49.038;10.608;2024-02-14T09:51:32;3.35;;;1.98;;
21430;SDS011;10876;49.038;10.608;2024-02-14T09:53:59;3.53;;;2.00;;
21430;SDS011;10876;49.038;10.608;2024-02-14T09:56:26;6.13;;;1.90;;
21430;SDS011;10876;49.038;10.608;2024-02-14T09:58:54;3.80;;;2.20;;
21430;SDS011;10876;49.038;10.608;2024-02-14T10:01:21;4.88;;;2.13;;
21430;SDS011;10876;49.038;10.608;2024-02-14T10:03:50;2.67;;;2.13;;
21430;SDS011;10876;49.038;10.608;2024-02-14T10:06:18;2.17;;;1.60;;
21430;SDS011;10876;49.038;10.608;2024-02-14T10:08:45;5.30;;;1.95;;
21430;SDS011;10876;49.038;10.608;2024-02-14T10:11:14;4.35;;;1.60;;
21430;SDS011;10876;49.038;10.608;2024-02-14T10:13:44;2.47;;;1.73;;
21430;SDS011;10876;49.038;10.608;2024-02-14T10:16:11;3.70;;;1.83;;
21430;SDS011;10876;49.038;10.608;2024-02-14T10:18:38;1.88;;;1.58;;
21430;SDS011;10876;49.038;10.608;2024-02-14T10:21:20;1.98;;;1.50;;
21430;SDS011;10876;49.038;10.608;2024-02-14T10:23:50;3.42;;;1.60;;
21430;SDS011;10876;49.038;10.608;2024-02-14T10:26:18;2.78;;;2.08;;
21430;SDS011;10876;49.038;10.608;2024-02-14T10:28:45;5.25;;;2.83;;
21430;SDS011;10876;49.038;10.608;2024-02-14T10:31:15;2.40;;;1.60;;
21430;SDS011;10876;49.038;10.608;2024-02-14T10:33:42;3.30;;;2.60;;
21430;SDS011;10876;49.038;10.608;2024-02-14T10:36:08;2.47;;;1.95;;
21430;SDS011;10876;49.038;10.608;2024-02-14T10:38:36;6.03;;;2.40;;
21430;SDS011;10876;49.038;10.608;2024-02-14T10:41:04;3.40;;;1.92;;
21430;SDS011;10876;49.038;10.608;2024-02-14T10:43:30;2.42;;;1.90;;
21430;SDS011;10876;49.038;10.608;2024-02-14T10:45:59;3.35;;;1.38;;
21430;SDS011;10876;49.038;10.608;2024-02-14T10:48:26;2.53;;;1.63;;
21430;SDS011;10876;49.038;10.608;2024-02-14T10:50:57;4.18;;;2.35;;
21430;SDS011;10876;49.038;10.608;2024-02-14T10:53:24;3.40;;;2.05;;
21430;SDS011;10876;49.038;10.608;2024-02-14T10:55:55;3.03;;;1.50;;
21430;SDS011;10876;49.038;10.608;2024-02-14T10:58:25;2.58;;;1.83;;
21430;SDS011;10876;49.038;10.608;2024-02-14T11:00:55;4.47;;;1.88;;
21430;SDS011;10876;49.038;10.608;2024-02-14T11:03:22;6.30;;;1.50;;
21430;SDS011;10876;49.038;10.608;2024-02-14T11:05:49;2.53;;;1.80;;
21430;SDS011;10876;49.038;10.608;2024-02-14T11:08:18;4.63;;;1.85;;
21430;SDS011;10876;49.038;10.608;2024-02-14T11:10:51;2.50;;;1.70;;
21430;SDS011;10876;49.038;10.608;2024-02-14T11:13:20;2.05;;;1.83;;
21430;SDS011;10876;49.038;10.608;2024-02-14T11:15:47;1.73;;;1.42;;
21430;SDS011;10876;49.038;10.608;2024-02-14T11:18:24;2.30;;;2.10;;
21430;SDS011;10876;49.038;10.608;2024-02-14T11:20:51;3.35;;;1.92;;
21430;SDS011;10876;49.038;10.608;2024-02-14T11:23:21;3.72;;;2.03;;
21430;SDS011;10876;49.038;10.608;2024-02-14T11:25:47;6.22;;;2.22;;
21430;SDS011;10876;49.038;10.608;2024-02-14T11:28:14;2.67;;;1.73;;
21430;SDS011;10876;49.038;10.608;2024-02-14T11:30:43;1.55;;;1.45;;
21430;SDS011;10876;49.038;10.608;2024-02-14T11:33:13;5.20;;;1.70;;
21430;SDS011;10876;49.038;10.608;2024-02-14T11:35:41;2.42;;;1.85;;
21430;SDS011;10876;49.038;10.608;2024-02-14T11:38:08;3.13;;;1.88;;
21430;SDS011;10876;49.038;10.608;2024-02-14T11:40:34;5.68;;;1.45;;
21430;SDS011;10876;49.038;10.608;2024-02-14T11:43:01;2.22;;;1.77;;
21430;SDS011;10876;49.038;10.608;2024-02-14T11:45:28;4.07;;;1.60;;
21430;SDS011;10876;49.038;10.608;2024-02-14T11:47:56;4.80;;;1.45;;
21430;SDS011;10876;49.038;10.608;2024-02-14T11:50:23;2.83;;;1.52;;
21430;SDS011;10876;49.038;10.608;2024-02-14T11:52:49;1.45;;;1.35;;
21430;SDS011;10876;49.038;10.608;2024-02-14T11:55:17;3.67;;;1.60;;
21430;SDS011;10876;49.038;10.608;2024-02-14T11:57:44;2.63;;;1.55;;
21430;SDS011;10876;49.038;10.608;2024-02-14T12:00:13;1.45;;;1.13;;
21430;SDS011;10876;49.038;10.608;2024-02-14T12:02:40;1.35;;;1.23;;
21430;SDS011;10876;49.038;10.608;2024-02-14T12:05:08;3.92;;;1.95;;
21430;SDS011;10876;49.038;10.608;2024-02-14T12:07:35;0.68;;;0.68;;
21430;SDS011;10876;49.038;10.608;2024-02-14T12:10:02;2.17;;;1.13;;
21430;SDS011;10876;49.038;10.608;2024-02-14T12:12:29;6.93;;;2.05;;
21430;SDS011;10876;49.038;10.608;2024-02-14T12:14:56;2.05;;;0.90;;
21430;SDS011;10876;49.038;10.608;2024-02-14T12:17:23;0.90;;;0.70;;
21430;SDS011;10876;49.038;10.608;2024-02-14T12:19:50;1.40;;;0.90;;
21430;SDS011;10876;49.038;10.608;2024-02-14T12:22:19;0.45;;;0.40;;
21430;SDS011;10876;49.038;10.608;2024-02-14T12:24:46;1.23;;;0.88;;
21430;SDS011;10876;49.038;10.608;2024-02-14T12:27:16;0.70;;;0.70;;
21430;SDS011;10876;49.038;10.608;2024-02-14T12:29:45;0.90;;;0.68;;
21430;SDS011;10876;49.038;10.608;2024-02-14T12:32:11;0.50;;;0.50;;
21430;SDS011;10876;49.038;10.608;2024-02-14T12:34:43;1.90;;;0.70;;
21430;SDS011;10876;49.038;10.608;2024-02-14T12:37:10;0.38;;;0.38;;
21430;SDS011;10876;49.038;10.608;2024-02-14T12:39:38;0.60;;;0.52;;
21430;SDS011;10876;49.038;10.608;2024-02-14T12:42:05;4.13;;;0.70;;
21430;SDS011;10876;49.038;10.608;2024-02-14T12:44:31;0.38;;;0.38;;
21430;SDS011;10876;49.038;10.608;2024-02-14T12:46:58;0.60;;;0.60;;
21430;SDS011;10876;49.038;10.608;2024-02-14T12:49:25;0.95;;;0.70;;
21430;SDS011;10876;49.038;10.608;2024-02-14T12:51:52;1.10;;;0.90;;
21430;SDS011;10876;49.038;10.608;2024-02-14T12:54:19;1.50;;;0.68;;
21430;SDS011;10876;49.038;10.608;2024-02-14T12:56:47;1.05;;;0.70;;
21430;SDS011;10876;49.038;10.608;2024-02-14T12:59:14;0.80;;;0.80;;
21430;SDS011;10876;49.038;10.608;2024-02-14T13:01:46;0.57;;;0.57;;
21430;SDS011;10876;49.038;10.608;2024-02-14T13:04:13;1.23;;;0.57;;
21430;SDS011;10876;49.038;10.608;2024-02-14T13:06:41;5.00;;;0.95;;
21430;SDS011;10876;49.038;10.608;2024-02-14T13:09:08;0.88;;;0.50;;
21430;SDS011;10876;49.038;10.608;2024-02-14T13:11:35;1.40;;;0.85;;
21430;SDS011;10876;49.038;10.608;2024-02-14T13:14:04;1.92;;;1.02;;
21430;SDS011;10876;49.038;10.608;2024-02-14T13:16:31;1.88;;;0.98;;
21430;SDS011;10876;49.038;10.608;2024-02-14T13:18:57;1.05;;;0.75;;
21430;SDS011;10876;49.038;10.608;2024-02-14T13:21:26;1.42;;;0.75;;
21430;SDS011;10876;49.038;10.608;2024-02-14T13:23:55;0.68;;;0.60;;
21430;SDS011;10876;49.038;10.608;2024-02-14T13:26:22;1.10;;;0.73;;
21430;SDS011;10876;49.038;10.608;2024-02-14T13:28:50;0.70;;;0.60;;
21430;SDS011;10876;49.038;10.608;2024-02-14T13:31:18;1.00;;;0.60;;
21430;SDS011;10876;49.038;10.608;2024-02-14T13:33:44;1.02;;;0.70;;
21430;SDS011;10876;49.038;10.608;2024-02-14T13:36:11;1.63;;;0.82;;
21430;SDS011;10876;49.038;10.608;2024-02-14T13:38:41;3.90;;;0.80;;
21430;SDS011;10876;49.038;10.608;2024-02-14T13:41:09;1.30;;;0.98;;
21430;SDS011;10876;49.038;10.608;2024-02-14T13:43:36;0.40;;;0.40;;
21430;SDS011;10876;49.038;10.608;2024-02-14T13:46:03;0.45;;;0.43;;
21430;SDS011;10876;49.038;10.608;2024-02-14T13:48:32;0.70;;;0.63;;
21430;SDS011;10876;49.038;10.608;2024-02-14T13:50:58;1.27;;;0.85;;
21430;SDS011;10876;49.038;10.608;2024-02-14T13:53:26;0.52;;;0.47;;
21430;SDS011;10876;49.038;10.608;2024-02-14T13:55:52;1.33;;;0.63;;
21430;SDS011;10876;49.038;10.608;2024-02-14T13:58:19;0.50;;;0.50;;
21430;SDS011;10876;49.038;10.608;2024-02-14T14:00:46;0.82;;;0.60;;
21430;SDS011;10876;49.038;10.608;2024-02-14T14:06:21;0.45;;;0.40;;
21430;SDS011;10876;49.038;10.608;2024-02-14T14:08:49;0.85;;;0.60;;
21430;SDS011;10876;49.038;10.608;2024-02-14T14:11:17;2.38;;;0.68;;
21430;SDS011;10876;49.038;10.608;2024-02-14T14:13:43;3.00;;;1.25;;
21430;SDS011;10876;49.038;10.608;2024-02-14T14:16:10;2.28;;;0.77;;
21430;SDS011;10876;49.038;10.608;2024-02-14T14:18:37;0.77;;;0.60;;
21430;SDS011;10876;49.038;10.608;2024-02-14T14:21:18;4.05;;;1.20;;
21430;SDS011;10876;49.038;10.608;2024-02-14T14:23:50;2.05;;;0.90;;
21430;SDS011;10876;49.038;10.608;2024-02-14T14:26:18;0.88;;;0.60;;
21430;SDS011;10876;49.038;10.608;2024-02-14T14:28:45;0.82;;;0.70;;
21430;SDS011;10876;49.038;10.608;2024-02-14T14:31:12;2.67;;;1.02;;
21430;SDS011;10876;49.038;10.608;2024-02-14T14:33:38;2.75;;;1.17;;
21430;SDS011;10876;49.038;10.608;2024-02-14T14:36:06;1.25;;;0.70;;
21430;SDS011;10876;49.038;10.608;2024-02-14T14:38:34;0.60;;;0.60;;
21430;SDS011;10876;49.038;10.608;2024-02-14T14:43:51;0.50;;;0.40;;
21430;SDS011;10876;49.038;10.608;2024-02-14T14:46:18;1.38;;;0.50;;